sensor_id;sensor_type;location;lat;lon;timestamp;temperature;humidity
33139;DHT22;19501;50.948;5.316;2023-06-10T00:01:24;24.00;74.90
33139;DHT22;19501;50.948;5.316;2023-06-10T00:03:50;24.00;74.90
33139;DHT22;19501;50.948;5.316;2023-06-10T00:06:17;24.00;75.10
33139;DHT22;19501;50.948;5.316;2023-06-10T00:08:43;23.90;75.20
33139;DHT22;19501;50.948;5.316;2023-06-10T00:11:08;23.90;75.60
33139;DHT22;19501;50.948;5.316;2023-06-10T00:13:35;23.90;75.70
33139;DHT22;19501;50.948;5.316;2023-06-10T00:16:01;23.80;75.90
33139;DHT22;19501;50.948;5.316;2023-06-10T00:18:26;23.80;75.90
33139;DHT22;19501;50.948;5.316;2023-06-10T00:20:53;23.70;76.30
33139;DHT22;19501;50.948;5.316;2023-06-10T00:23:21;23.70;76.50
33139;DHT22;19501;50.948;5.316;2023-06-10T00:25:46;23.60;76.70
33139;DHT22;19501;50.948;5.316;2023-06-10T00:28:12;23.60;77.00
33139;DHT22;19501;50.948;5.316;2023-06-10T00:30:38;23.60;76.80
33139;DHT22;19501;50.948;5.316;2023-06-10T00:33:04;23.60;76.90
33139;DHT22;19501;50.948;5.316;2023-06-10T00:35:32;23.50;77.10
33139;DHT22;19501;50.948;5.316;2023-06-10T00:37:58;23.50;77.40
33139;DHT22;19501;50.948;5.316;2023-06-10T00:40:24;23.40;77.60
33139;DHT22;19501;50.948;5.316;2023-06-10T00:42:49;23.30;78.00
33139;DHT22;19501;50.948;5.316;2023-06-10T00:45:15;23.30;78.20
33139;DHT22;19501;50.948;5.316;2023-06-10T00:47:41;23.30;78.20
33139;DHT22;19501;50.948;5.316;2023-06-10T00:50:07;23.20;78.30
33139;DHT22;19501;50.948;5.316;2023-06-10T00:52:36;23.10;78.30
33139;DHT22;19501;50.948;5.316;2023-06-10T00:55:02;23.10;78.70
33139;DHT22;19501;50.948;5.316;2023-06-10T00:57:27;23.10;78.80
33139;DHT22;19501;50.948;5.316;2023-06-10T00:59:54;22.90;79.50
33139;DHT22;19501;50.948;5.316;2023-06-10T01:02:22;22.90;79.70
33139;DHT22;19501;50.948;5.316;2023-06-10T01:04:50;22.80;79.80
33139;DHT22;19501;50.948;5.316;2023-06-10T01:10:20;22.80;80.70
33139;DHT22;19501;50.948;5.316;2023-06-10T01:13:06;22.80;80.30
33139;DHT22;19501;50.948;5.316;2023-06-10T01:15:37;22.80;80.40
33139;DHT22;19501;50.948;5.316;2023-06-10T01:18:05;22.70;80.80
33139;DHT22;19501;50.948;5.316;2023-06-10T01:20:32;22.70;81.00
33139;DHT22;19501;50.948;5.316;2023-06-10T01:22:59;22.60;81.80
33139;DHT22;19501;50.948;5.316;2023-06-10T01:25:29;22.60;81.30
33139;DHT22;19501;50.948;5.316;2023-06-10T01:28:12;22.60;81.10
33139;DHT22;19501;50.948;5.316;2023-06-10T01:33:18;22.60;82.20
33139;DHT22;19501;50.948;5.316;2023-06-10T01:35:48;22.50;82.10
33139;DHT22;19501;50.948;5.316;2023-06-10T01:38:15;22.40;82.40
33139;DHT22;19501;50.948;5.316;2023-06-10T01:40:46;22.40;82.60
33139;DHT22;19501;50.948;5.316;2023-06-10T01:43:14;22.30;83.20
33139;DHT22;19501;50.948;5.316;2023-06-10T01:45:40;22.30;82.90
33139;DHT22;19501;50.948;5.316;2023-06-10T01:48:06;22.30;83.30
33139;DHT22;19501;50.948;5.316;2023-06-10T01:50:31;22.20;84.20
33139;DHT22;19501;50.948;5.316;2023-06-10T01:52:59;22.10;83.60
33139;DHT22;19501;50.948;5.316;2023-06-10T01:55:25;22.10;84.00
33139;DHT22;19501;50.948;5.316;2023-06-10T01:57:50;22.10;83.90
33139;DHT22;19501;50.948;5.316;2023-06-10T02:00:17;22.20;83.90
33139;DHT22;19501;50.948;5.316;2023-06-10T02:02:43;22.30;83.70
33139;DHT22;19501;50.948;5.316;2023-06-10T02:05:08;22.10;84.10
33139;DHT22;19501;50.948;5.316;2023-06-10T02:07:34;22.20;84.30
33139;DHT22;19501;50.948;5.316;2023-06-10T02:10:00;22.20;84.30
33139;DHT22;19501;50.948;5.316;2023-06-10T02:12:25;22.20;84.30
33139;DHT22;19501;50.948;5.316;2023-06-10T02:14:51;22.00;84.70
33139;DHT22;19501;50.948;5.316;2023-06-10T02:17:17;22.00;84.90
33139;DHT22;19501;50.948;5.316;2023-06-10T02:19:42;22.00;85.10
33139;DHT22;19501;50.948;5.316;2023-06-10T02:22:09;21.80;85.90
33139;DHT22;19501;50.948;5.316;2023-06-10T02:24:36;21.70;86.30
33139;DHT22;19501;50.948;5.316;2023-06-10T02:27:04;21.60;86.90
33139;DHT22;19501;50.948;5.316;2023-06-10T02:29:33;21.60;87.20
33139;DHT22;19501;50.948;5.316;2023-06-10T02:31:59;21.70;87.00
33139;DHT22;19501;50.948;5.316;2023-06-10T02:34:24;21.80;86.80
33139;DHT22;19501;50.948;5.316;2023-06-10T02:36:50;21.70;86.80
33139;DHT22;19501;50.948;5.316;2023-06-10T02:39:16;21.70;87.00
33139;DHT22;19501;50.948;5.316;2023-06-10T02:41:42;21.50;87.80
33139;DHT22;19501;50.948;5.316;2023-06-10T02:44:08;21.50;88.00
33139;DHT22;19501;50.948;5.316;2023-06-10T02:46:33;21.50;88.00
33139;DHT22;19501;50.948;5.316;2023-06-10T02:48:59;21.50;88.30
33139;DHT22;19501;50.948;5.316;2023-06-10T02:51:25;21.40;88.50
33139;DHT22;19501;50.948;5.316;2023-06-10T02:53:51;21.50;88.70
33139;DHT22;19501;50.948;5.316;2023-06-10T02:56:19;21.40;89.00
33139;DHT22;19501;50.948;5.316;2023-06-10T02:58:47;21.30;89.40
33139;DHT22;19501;50.948;5.316;2023-06-10T03:01:14;21.20;90.00
33139;DHT22;19501;50.948;5.316;2023-06-10T03:03:40;21.20;90.10
33139;DHT22;19501;50.948;5.316;2023-06-10T03:06:09;21.20;90.40
33139;DHT22;19501;50.948;5.316;2023-06-10T03:08:36;21.20;90.40
33139;DHT22;19501;50.948;5.316;2023-06-10T03:11:03;21.20;90.70
33139;DHT22;19501;50.948;5.316;2023-06-10T03:13:28;21.20;90.40
33139;DHT22;19501;50.948;5.316;2023-06-10T03:15:54;21.20;90.50
33139;DHT22;19501;50.948;5.316;2023-06-10T03:18:20;21.20;90.70
33139;DHT22;19501;50.948;5.316;2023-06-10T03:20:46;21.10;90.90
33139;DHT22;19501;50.948;5.316;2023-06-10T03:23:11;21.10;90.90
33139;DHT22;19501;50.948;5.316;2023-06-10T03:25:38;21.00;91.30
33139;DHT22;19501;50.948;5.316;2023-06-10T03:28:03;21.00;91.50
33139;DHT22;19501;50.948;5.316;2023-06-10T03:30:29;21.00;91.60
33139;DHT22;19501;50.948;5.316;2023-06-10T03:32:55;21.00;91.70
33139;DHT22;19501;50.948;5.316;2023-06-10T03:35:20;21.00;91.70
33139;DHT22;19501;50.948;5.316;2023-06-10T03:37:46;21.00;91.90
33139;DHT22;19501;50.948;5.316;2023-06-10T03:40:12;20.90;92.20
33139;DHT22;19501;50.948;5.316;2023-06-10T03:42:38;20.90;92.30
33139;DHT22;19501;50.948;5.316;2023-06-10T03:45:04;20.90;92.50
33139;DHT22;19501;50.948;5.316;2023-06-10T03:47:36;20.90;92.50
33139;DHT22;19501;50.948;5.316;2023-06-10T03:50:03;20.90;92.60
33139;DHT22;19501;50.948;5.316;2023-06-10T03:52:29;20.90;92.60
33139;DHT22;19501;50.948;5.316;2023-06-10T03:54:55;20.90;92.70
33139;DHT22;19501;50.948;5.316;2023-06-10T03:57:21;21.00;92.70
33139;DHT22;19501;50.948;5.316;2023-06-10T03:59:46;21.00;92.80
33139;DHT22;19501;50.948;5.316;2023-06-10T04:02:12;21.00;93.00
33139;DHT22;19501;50.948;5.316;2023-06-10T04:04:38;20.90;93.20
33139;DHT22;19501;50.948;5.316;2023-06-10T04:07:07;21.00;93.30
33139;DHT22;19501;50.948;5.316;2023-06-10T04:09:33;20.90;93.40
33139;DHT22;19501;50.948;5.316;2023-06-10T04:11:59;20.90;93.80
33139;DHT22;19501;50.948;5.316;2023-06-10T04:14:25;20.90;93.80
33139;DHT22;19501;50.948;5.316;2023-06-10T04:16:50;20.90;93.80
33139;DHT22;19501;50.948;5.316;2023-06-10T04:19:16;20.90;94.10
33139;DHT22;19501;50.948;5.316;2023-06-10T04:21:45;20.90;94.40
33139;DHT22;19501;50.948;5.316;2023-06-10T04:24:11;20.70;95.00
33139;DHT22;19501;50.948;5.316;2023-06-10T04:26:37;20.80;95.20
33139;DHT22;19501;50.948;5.316;2023-06-10T04:29:04;20.80;95.10
33139;DHT22;19501;50.948;5.316;2023-06-10T04:31:32;20.80;95.30
33139;DHT22;19501;50.948;5.316;2023-06-10T04:33:57;21.10;95.30
33139;DHT22;19501;50.948;5.316;2023-06-10T04:36:23;20.80;95.80
33139;DHT22;19501;50.948;5.316;2023-06-10T04:38:49;20.80;96.10
33139;DHT22;19501;50.948;5.316;2023-06-10T04:41:17;20.80;96.20
33139;DHT22;19501;50.948;5.316;2023-06-10T04:43:43;20.80;96.50
33139;DHT22;19501;50.948;5.316;2023-06-10T04:46:09;20.70;96.90
33139;DHT22;19501;50.948;5.316;2023-06-10T04:48:35;20.80;97.00
33139;DHT22;19501;50.948;5.316;2023-06-10T04:51:01;20.90;96.70
33139;DHT22;19501;50.948;5.316;2023-06-10T04:53:27;21.00;96.60
33139;DHT22;19501;50.948;5.316;2023-06-10T04:55:54;20.90;96.80
33139;DHT22;19501;50.948;5.316;2023-06-10T04:58:19;21.00;96.80
33139;DHT22;19501;50.948;5.316;2023-06-10T05:00:45;21.00;97.00
33139;DHT22;19501;50.948;5.316;2023-06-10T05:03:11;21.00;97.20
33139;DHT22;19501;50.948;5.316;2023-06-10T05:05:36;21.00;97.30
33139;DHT22;19501;50.948;5.316;2023-06-10T05:08:05;21.10;97.40
33139;DHT22;19501;50.948;5.316;2023-06-10T05:10:30;21.10;97.30
33139;DHT22;19501;50.948;5.316;2023-06-10T05:12:58;21.20;96.90
33139;DHT22;19501;50.948;5.316;2023-06-10T05:15:24;21.30;97.10
33139;DHT22;19501;50.948;5.316;2023-06-10T05:17:50;21.30;96.90
33139;DHT22;19501;50.948;5.316;2023-06-10T05:20:16;21.40;97.00
33139;DHT22;19501;50.948;5.316;2023-06-10T05:22:41;21.50;96.70
33139;DHT22;19501;50.948;5.316;2023-06-10T05:25:07;21.50;96.30
33139;DHT22;19501;50.948;5.316;2023-06-10T05:27:33;21.50;96.50
33139;DHT22;19501;50.948;5.316;2023-06-10T05:29:59;21.60;96.60
33139;DHT22;19501;50.948;5.316;2023-06-10T05:32:24;21.80;96.40
33139;DHT22;19501;50.948;5.316;2023-06-10T05:34:50;21.80;96.00
33139;DHT22;19501;50.948;5.316;2023-06-10T05:37:16;21.90;95.90
33139;DHT22;19501;50.948;5.316;2023-06-10T05:39:41;22.00;95.80
33139;DHT22;19501;50.948;5.316;2023-06-10T05:42:07;22.10;95.50
33139;DHT22;19501;50.948;5.316;2023-06-10T05:44:34;22.10;95.40
33139;DHT22;19501;50.948;5.316;2023-06-10T05:46:59;22.10;95.20
33139;DHT22;19501;50.948;5.316;2023-06-10T05:49:27;22.20;94.60
33139;DHT22;19501;50.948;5.316;2023-06-10T05:51:53;22.20;94.60
33139;DHT22;19501;50.948;5.316;2023-06-10T05:54:19;22.30;94.50
33139;DHT22;19501;50.948;5.316;2023-06-10T05:56:45;22.40;94.00
33139;DHT22;19501;50.948;5.316;2023-06-10T05:59:10;22.50;93.70
33139;DHT22;19501;50.948;5.316;2023-06-10T06:01:36;22.50;93.50
33139;DHT22;19501;50.948;5.316;2023-06-10T06:04:02;22.60;93.30
33139;DHT22;19501;50.948;5.316;2023-06-10T06:06:28;22.70;93.20
33139;DHT22;19501;50.948;5.316;2023-06-10T06:08:53;22.90;92.70
33139;DHT22;19501;50.948;5.316;2023-06-10T06:11:19;23.00;92.50
33139;DHT22;19501;50.948;5.316;2023-06-10T06:13:45;22.90;92.50
33139;DHT22;19501;50.948;5.316;2023-06-10T06:16:11;23.10;92.70
33139;DHT22;19501;50.948;5.316;2023-06-10T06:18:36;23.10;92.30
33139;DHT22;19501;50.948;5.316;2023-06-10T06:21:02;23.20;92.00
33139;DHT22;19501;50.948;5.316;2023-06-10T06:23:28;23.30;91.50
33139;DHT22;19501;50.948;5.316;2023-06-10T06:25:53;23.40;91.10
33139;DHT22;19501;50.948;5.316;2023-06-10T06:28:19;23.40;90.80
33139;DHT22;19501;50.948;5.316;2023-06-10T06:30:46;23.40;90.90
33139;DHT22;19501;50.948;5.316;2023-06-10T06:33:12;23.50;90.70
33139;DHT22;19501;50.948;5.316;2023-06-10T06:35:38;23.50;90.50
33139;DHT22;19501;50.948;5.316;2023-06-10T06:38:04;23.70;90.90
33139;DHT22;19501;50.948;5.316;2023-06-10T06:40:30;23.70;90.70
33139;DHT22;19501;50.948;5.316;2023-06-10T06:42:56;23.90;90.30
33139;DHT22;19501;50.948;5.316;2023-06-10T06:45:21;24.10;90.10
33139;DHT22;19501;50.948;5.316;2023-06-10T06:47:47;24.30;88.30
33139;DHT22;19501;50.948;5.316;2023-06-10T06:50:13;24.30;88.80
33139;DHT22;19501;50.948;5.316;2023-06-10T06:52:39;24.40;88.20
33139;DHT22;19501;50.948;5.316;2023-06-10T06:55:05;24.50;87.50
33139;DHT22;19501;50.948;5.316;2023-06-10T06:57:31;24.50;87.10
33139;DHT22;19501;50.948;5.316;2023-06-10T06:59:57;24.60;87.50
33139;DHT22;19501;50.948;5.316;2023-06-10T07:02:22;24.70;86.50
33139;DHT22;19501;50.948;5.316;2023-06-10T07:04:49;24.80;86.10
33139;DHT22;19501;50.948;5.316;2023-06-10T07:07:15;24.80;86.30
33139;DHT22;19501;50.948;5.316;2023-06-10T07:09:46;24.80;86.10
33139;DHT22;19501;50.948;5.316;2023-06-10T07:12:11;24.80;85.70
33139;DHT22;19501;50.948;5.316;2023-06-10T07:14:37;24.90;85.10
33139;DHT22;19501;50.948;5.316;2023-06-10T07:17:03;24.90;85.00
33139;DHT22;19501;50.948;5.316;2023-06-10T07:19:28;25.10;84.60
33139;DHT22;19501;50.948;5.316;2023-06-10T07:21:54;25.40;84.70
33139;DHT22;19501;50.948;5.316;2023-06-10T07:24:20;25.50;83.40
33139;DHT22;19501;50.948;5.316;2023-06-10T07:26:46;25.60;84.20
33139;DHT22;19501;50.948;5.316;2023-06-10T07:29:12;25.60;83.30
33139;DHT22;19501;50.948;5.316;2023-06-10T07:31:38;25.70;83.20
33139;DHT22;19501;50.948;5.316;2023-06-10T07:34:06;25.80;82.80
33139;DHT22;19501;50.948;5.316;2023-06-10T07:36:31;25.80;82.30
33139;DHT22;19501;50.948;5.316;2023-06-10T07:38:57;25.90;82.60
33139;DHT22;19501;50.948;5.316;2023-06-10T07:41:24;25.90;82.10
33139;DHT22;19501;50.948;5.316;2023-06-10T07:43:54;26.10;81.60
33139;DHT22;19501;50.948;5.316;2023-06-10T07:46:23;26.50;80.40
33139;DHT22;19501;50.948;5.316;2023-06-10T07:48:49;26.90;81.40
33139;DHT22;19501;50.948;5.316;2023-06-10T07:51:16;27.10;80.40
33139;DHT22;19501;50.948;5.316;2023-06-10T07:53:42;27.20;79.50
33139;DHT22;19501;50.948;5.316;2023-06-10T07:56:07;27.10;79.30
33139;DHT22;19501;50.948;5.316;2023-06-10T07:58:33;27.20;79.00
33139;DHT22;19501;50.948;5.316;2023-06-10T08:00:59;27.50;79.50
33139;DHT22;19501;50.948;5.316;2023-06-10T08:03:24;27.40;77.60
33139;DHT22;19501;50.948;5.316;2023-06-10T08:05:50;27.50;78.10
33139;DHT22;19501;50.948;5.316;2023-06-10T08:08:16;27.60;79.20
33139;DHT22;19501;50.948;5.316;2023-06-10T08:10:41;27.70;78.80
33139;DHT22;19501;50.948;5.316;2023-06-10T08:13:08;27.70;77.50
33139;DHT22;19501;50.948;5.316;2023-06-10T08:15:34;27.80;76.80
33139;DHT22;19501;50.948;5.316;2023-06-10T08:18:00;28.00;76.90
33139;DHT22;19501;50.948;5.316;2023-06-10T08:20:25;28.10;77.00
33139;DHT22;19501;50.948;5.316;2023-06-10T08:22:51;28.20;78.10
33139;DHT22;19501;50.948;5.316;2023-06-10T08:25:17;28.30;77.60
33139;DHT22;19501;50.948;5.316;2023-06-10T08:27:43;28.20;76.50
33139;DHT22;19501;50.948;5.316;2023-06-10T08:30:09;28.30;77.40
33139;DHT22;19501;50.948;5.316;2023-06-10T08:32:36;28.40;76.40
33139;DHT22;19501;50.948;5.316;2023-06-10T08:35:04;28.60;76.80
33139;DHT22;19501;50.948;5.316;2023-06-10T08:37:30;28.70;76.20
33139;DHT22;19501;50.948;5.316;2023-06-10T08:39:56;28.80;75.40
33139;DHT22;19501;50.948;5.316;2023-06-10T08:42:34;29.00;75.90
33139;DHT22;19501;50.948;5.316;2023-06-10T08:45:05;29.10;73.90
33139;DHT22;19501;50.948;5.316;2023-06-10T08:47:35;29.20;73.90
33139;DHT22;19501;50.948;5.316;2023-06-10T08:50:04;29.30;73.40
33139;DHT22;19501;50.948;5.316;2023-06-10T08:52:35;29.40;73.90
33139;DHT22;19501;50.948;5.316;2023-06-10T08:55:19;29.20;72.40
33139;DHT22;19501;50.948;5.316;2023-06-10T08:57:48;29.30;74.50
33139;DHT22;19501;50.948;5.316;2023-06-10T09:00:16;29.60;72.90
33139;DHT22;19501;50.948;5.316;2023-06-10T09:02:43;29.80;72.70
33139;DHT22;19501;50.948;5.316;2023-06-10T09:05:09;29.80;72.80
33139;DHT22;19501;50.948;5.316;2023-06-10T09:07:35;29.80;72.10
33139;DHT22;19501;50.948;5.316;2023-06-10T09:10:03;29.90;71.30
33139;DHT22;19501;50.948;5.316;2023-06-10T09:12:29;29.50;70.70
33139;DHT22;19501;50.948;5.316;2023-06-10T09:14:55;29.60;72.60
33139;DHT22;19501;50.948;5.316;2023-06-10T09:17:22;29.90;71.50
33139;DHT22;19501;50.948;5.316;2023-06-10T09:19:47;30.20;71.10
33139;DHT22;19501;50.948;5.316;2023-06-10T09:22:14;30.50;69.80
33139;DHT22;19501;50.948;5.316;2023-06-10T09:24:40;30.50;70.80
33139;DHT22;19501;50.948;5.316;2023-06-10T09:27:07;30.80;67.60
33139;DHT22;19501;50.948;5.316;2023-06-10T09:29:54;30.80;68.20
33139;DHT22;19501;50.948;5.316;2023-06-10T09:32:20;30.90;67.90
33139;DHT22;19501;50.948;5.316;2023-06-10T09:34:46;31.10;66.80
33139;DHT22;19501;50.948;5.316;2023-06-10T09:37:12;31.20;65.40
33139;DHT22;19501;50.948;5.316;2023-06-10T09:39:39;31.40;65.80
33139;DHT22;19501;50.948;5.316;2023-06-10T09:42:18;31.50;65.40
33139;DHT22;19501;50.948;5.316;2023-06-10T09:44:51;31.50;65.00
33139;DHT22;19501;50.948;5.316;2023-06-10T09:47:23;31.60;65.00
33139;DHT22;19501;50.948;5.316;2023-06-10T09:49:49;31.70;64.70
33139;DHT22;19501;50.948;5.316;2023-06-10T09:52:25;31.70;64.90
33139;DHT22;19501;50.948;5.316;2023-06-10T09:54:52;31.60;64.00
33139;DHT22;19501;50.948;5.316;2023-06-10T09:57:18;31.80;64.50
33139;DHT22;19501;50.948;5.316;2023-06-10T09:59:47;32.00;63.90
33139;DHT22;19501;50.948;5.316;2023-06-10T10:02:16;32.10;62.30
33139;DHT22;19501;50.948;5.316;2023-06-10T10:04:43;32.20;62.10
33139;DHT22;19501;50.948;5.316;2023-06-10T10:07:10;32.40;62.70
33139;DHT22;19501;50.948;5.316;2023-06-10T10:09:40;32.50;62.60
33139;DHT22;19501;50.948;5.316;2023-06-10T10:12:10;32.60;62.60
33139;DHT22;19501;50.948;5.316;2023-06-10T10:14:39;32.70;61.10
33139;DHT22;19501;50.948;5.316;2023-06-10T10:17:09;32.70;61.10
33139;DHT22;19501;50.948;5.316;2023-06-10T10:19:43;32.60;60.70
33139;DHT22;19501;50.948;5.316;2023-06-10T10:22:20;32.60;60.20
33139;DHT22;19501;50.948;5.316;2023-06-10T10:24:52;32.60;60.90
33139;DHT22;19501;50.948;5.316;2023-06-10T10:27:24;32.60;58.70
33139;DHT22;19501;50.948;5.316;2023-06-10T10:29:54;32.70;57.70
33139;DHT22;19501;50.948;5.316;2023-06-10T10:32:27;32.50;57.80
33139;DHT22;19501;50.948;5.316;2023-06-10T10:35:08;32.60;57.80
33139;DHT22;19501;50.948;5.316;2023-06-10T10:37:36;32.70;58.80
33139;DHT22;19501;50.948;5.316;2023-06-10T10:40:02;32.80;58.30
33139;DHT22;19501;50.948;5.316;2023-06-10T10:42:30;32.70;57.50
33139;DHT22;19501;50.948;5.316;2023-06-10T10:44:58;32.50;57.50
33139;DHT22;19501;50.948;5.316;2023-06-10T10:47:27;32.30;57.10
33139;DHT22;19501;50.948;5.316;2023-06-10T10:49:55;32.60;58.70
33139;DHT22;19501;50.948;5.316;2023-06-10T10:52:24;32.90;58.90
33139;DHT22;19501;50.948;5.316;2023-06-10T10:54:53;33.10;57.60
33139;DHT22;19501;50.948;5.316;2023-06-10T10:57:23;33.20;56.60
33139;DHT22;19501;50.948;5.316;2023-06-10T11:02:18;33.60;55.80
33139;DHT22;19501;50.948;5.316;2023-06-10T11:04:57;34.30;57.60
33139;DHT22;19501;50.948;5.316;2023-06-10T11:07:25;34.70;56.50
33139;DHT22;19501;50.948;5.316;2023-06-10T11:10:07;35.20;55.60
33139;DHT22;19501;50.948;5.316;2023-06-10T11:12:53;35.20;54.80
33139;DHT22;19501;50.948;5.316;2023-06-10T11:15:24;35.30;54.90
33139;DHT22;19501;50.948;5.316;2023-06-10T11:26:19;36.10;52.70
33139;DHT22;19501;50.948;5.316;2023-06-10T11:34:04;37.00;53.40
33139;DHT22;19501;50.948;5.316;2023-06-10T11:36:34;37.00;53.60
33139;DHT22;19501;50.948;5.316;2023-06-10T11:39:04;36.40;51.70
33139;DHT22;19501;50.948;5.316;2023-06-10T11:41:31;37.00;50.00
33139;DHT22;19501;50.948;5.316;2023-06-10T11:44:04;36.70;49.00
33139;DHT22;19501;50.948;5.316;2023-06-10T11:46:33;37.20;49.60
33139;DHT22;19501;50.948;5.316;2023-06-10T11:48:59;36.70;50.80
33139;DHT22;19501;50.948;5.316;2023-06-10T11:51:27;37.00;50.60
33139;DHT22;19501;50.948;5.316;2023-06-10T11:53:54;37.90;50.80
33139;DHT22;19501;50.948;5.316;2023-06-10T11:56:24;37.70;49.60
33139;DHT22;19501;50.948;5.316;2023-06-10T11:58:56;37.30;49.00
33139;DHT22;19501;50.948;5.316;2023-06-10T12:01:25;36.00;49.40
33139;DHT22;19501;50.948;5.316;2023-06-10T12:04:04;36.30;51.30
33139;DHT22;19501;50.948;5.316;2023-06-10T12:06:44;37.10;48.80
33139;DHT22;19501;50.948;5.316;2023-06-10T12:11:49;37.50;48.20
33139;DHT22;19501;50.948;5.316;2023-06-10T12:14:15;38.30;47.40
33139;DHT22;19501;50.948;5.316;2023-06-10T12:16:48;38.80;46.20
33139;DHT22;19501;50.948;5.316;2023-06-10T12:19:15;38.10;45.70
33139;DHT22;19501;50.948;5.316;2023-06-10T12:21:40;37.90;45.50
33139;DHT22;19501;50.948;5.316;2023-06-10T12:24:09;38.00;45.80
33139;DHT22;19501;50.948;5.316;2023-06-10T12:26:42;39.60;46.30
33139;DHT22;19501;50.948;5.316;2023-06-10T12:29:25;39.60;45.60
33139;DHT22;19501;50.948;5.316;2023-06-10T12:31:58;38.40;47.80
33139;DHT22;19501;50.948;5.316;2023-06-10T12:34:35;37.90;46.00
33139;DHT22;19501;50.948;5.316;2023-06-10T12:37:03;37.60;46.70
33139;DHT22;19501;50.948;5.316;2023-06-10T12:39:33;37.90;46.90
33139;DHT22;19501;50.948;5.316;2023-06-10T12:41:59;38.50;46.30
33139;DHT22;19501;50.948;5.316;2023-06-10T12:44:31;39.10;46.20
33139;DHT22;19501;50.948;5.316;2023-06-10T12:46:57;38.90;46.10
33139;DHT22;19501;50.948;5.316;2023-06-10T12:49:23;38.80;45.40
33139;DHT22;19501;50.948;5.316;2023-06-10T12:51:48;38.90;45.00
33139;DHT22;19501;50.948;5.316;2023-06-10T12:54:14;38.90;43.90
33139;DHT22;19501;50.948;5.316;2023-06-10T12:56:40;40.60;43.70
33139;DHT22;19501;50.948;5.316;2023-06-10T12:59:05;39.40;44.30
33139;DHT22;19501;50.948;5.316;2023-06-10T13:01:31;39.80;43.70
33139;DHT22;19501;50.948;5.316;2023-06-10T13:03:58;40.90;43.70
33139;DHT22;19501;50.948;5.316;2023-06-10T13:06:23;40.90;42.60
33139;DHT22;19501;50.948;5.316;2023-06-10T13:08:49;40.20;42.20
33139;DHT22;19501;50.948;5.316;2023-06-10T13:11:16;40.40;41.70
33139;DHT22;19501;50.948;5.316;2023-06-10T13:13:42;41.10;41.80
33139;DHT22;19501;50.948;5.316;2023-06-10T13:16:09;40.30;41.60
33139;DHT22;19501;50.948;5.316;2023-06-10T13:18:34;40.70;42.00
33139;DHT22;19501;50.948;5.316;2023-06-10T13:21:06;42.60;41.60
33139;DHT22;19501;50.948;5.316;2023-06-10T13:23:32;41.50;41.40
33139;DHT22;19501;50.948;5.316;2023-06-10T13:25:58;42.30;40.90
33139;DHT22;19501;50.948;5.316;2023-06-10T13:28:23;42.20;40.70
33139;DHT22;19501;50.948;5.316;2023-06-10T13:30:49;42.00;40.50
33139;DHT22;19501;50.948;5.316;2023-06-10T13:33:15;41.40;40.10
33139;DHT22;19501;50.948;5.316;2023-06-10T13:35:41;41.10;40.30
33139;DHT22;19501;50.948;5.316;2023-06-10T13:38:07;40.50;41.00
33139;DHT22;19501;50.948;5.316;2023-06-10T13:40:33;41.90;40.80
33139;DHT22;19501;50.948;5.316;2023-06-10T13:42:58;41.90;40.20
33139;DHT22;19501;50.948;5.316;2023-06-10T13:45:25;40.40;40.70
33139;DHT22;19501;50.948;5.316;2023-06-10T13:47:51;39.90;42.50
33139;DHT22;19501;50.948;5.316;2023-06-10T13:50:19;40.00;41.50
33139;DHT22;19501;50.948;5.316;2023-06-10T13:52:45;40.30;41.20
33139;DHT22;19501;50.948;5.316;2023-06-10T13:55:10;41.50;41.00
33139;DHT22;19501;50.948;5.316;2023-06-10T13:57:36;41.70;40.40
33139;DHT22;19501;50.948;5.316;2023-06-10T14:00:02;41.90;39.90
33139;DHT22;19501;50.948;5.316;2023-06-10T14:02:28;42.20;39.20
33139;DHT22;19501;50.948;5.316;2023-06-10T14:04:53;41.50;40.50
33139;DHT22;19501;50.948;5.316;2023-06-10T14:07:22;41.50;40.90
33139;DHT22;19501;50.948;5.316;2023-06-10T14:09:51;41.90;39.20
33139;DHT22;19501;50.948;5.316;2023-06-10T14:12:17;42.40;39.70
33139;DHT22;19501;50.948;5.316;2023-06-10T14:14:42;40.40;40.60
33139;DHT22;19501;50.948;5.316;2023-06-10T14:17:08;40.70;39.90
33139;DHT22;19501;50.948;5.316;2023-06-10T14:19:33;40.50;40.30
33139;DHT22;19501;50.948;5.316;2023-06-10T14:21:59;40.40;39.70
33139;DHT22;19501;50.948;5.316;2023-06-10T14:24:25;41.70;38.10
33139;DHT22;19501;50.948;5.316;2023-06-10T14:26:51;40.90;38.10
33139;DHT22;19501;50.948;5.316;2023-06-10T14:29:16;40.20;39.60
33139;DHT22;19501;50.948;5.316;2023-06-10T14:31:44;39.40;40.10
33139;DHT22;19501;50.948;5.316;2023-06-10T14:34:09;39.80;40.10
33139;DHT22;19501;50.948;5.316;2023-06-10T14:36:35;40.00;39.50
33139;DHT22;19501;50.948;5.316;2023-06-10T14:39:02;39.40;40.30
33139;DHT22;19501;50.948;5.316;2023-06-10T14:41:28;39.60;40.50
33139;DHT22;19501;50.948;5.316;2023-06-10T14:43:53;38.50;41.00
33139;DHT22;19501;50.948;5.316;2023-06-10T14:46:19;38.30;41.00
33139;DHT22;19501;50.948;5.316;2023-06-10T14:48:47;37.60;41.40
33139;DHT22;19501;50.948;5.316;2023-06-10T14:51:16;37.10;41.80
33139;DHT22;19501;50.948;5.316;2023-06-10T14:53:46;36.70;41.30
33139;DHT22;19501;50.948;5.316;2023-06-10T14:56:14;36.60;42.00
33139;DHT22;19501;50.948;5.316;2023-06-10T14:58:39;36.60;42.00
33139;DHT22;19501;50.948;5.316;2023-06-10T15:01:05;36.40;42.50
33139;DHT22;19501;50.948;5.316;2023-06-10T15:03:31;36.60;42.70
33139;DHT22;19501;50.948;5.316;2023-06-10T15:05:57;36.90;42.60
33139;DHT22;19501;50.948;5.316;2023-06-10T15:08:22;36.70;44.10
33139;DHT22;19501;50.948;5.316;2023-06-10T15:10:48;36.50;44.80
33139;DHT22;19501;50.948;5.316;2023-06-10T15:13:16;36.30;45.50
33139;DHT22;19501;50.948;5.316;2023-06-10T15:15:44;36.30;45.80
33139;DHT22;19501;50.948;5.316;2023-06-10T15:18:10;36.10;46.10
33139;DHT22;19501;50.948;5.316;2023-06-10T15:20:36;36.00;46.90
33139;DHT22;19501;50.948;5.316;2023-06-10T15:23:01;35.90;47.20
33139;DHT22;19501;50.948;5.316;2023-06-10T15:25:27;35.90;47.70
33139;DHT22;19501;50.948;5.316;2023-06-10T15:27:53;35.80;47.70
33139;DHT22;19501;50.948;5.316;2023-06-10T15:30:18;35.10;46.80
33139;DHT22;19501;50.948;5.316;2023-06-10T15:32:44;34.40;47.80
33139;DHT22;19501;50.948;5.316;2023-06-10T15:35:10;34.20;48.80
33139;DHT22;19501;50.948;5.316;2023-06-10T15:37:39;34.10;48.30
33139;DHT22;19501;50.948;5.316;2023-06-10T15:40:05;34.30;48.00
33139;DHT22;19501;50.948;5.316;2023-06-10T15:42:31;34.50;47.10
33139;DHT22;19501;50.948;5.316;2023-06-10T15:44:57;34.60;47.70
33139;DHT22;19501;50.948;5.316;2023-06-10T15:47:23;35.00;47.30
33139;DHT22;19501;50.948;5.316;2023-06-10T15:49:48;35.00;47.80
33139;DHT22;19501;50.948;5.316;2023-06-10T15:52:16;34.70;47.70
33139;DHT22;19501;50.948;5.316;2023-06-10T15:54:41;34.90;48.20